createdAt,value
2016-09-15T00:00:30.045Z,49.65
2016-09-15T00:01:10.584Z,49.44
2016-09-15T00:01:51.133Z,49.65
2016-09-15T00:02:31.676Z,50.11
2016-09-15T00:03:12.225Z,50.33
2016-09-15T00:03:52.769Z,50.01
2016-09-15T00:04:33.312Z,50.31
2016-09-15T00:05:13.866Z,49.92
2016-09-15T00:05:54.415Z,50.59
2016-09-15T00:06:34.962Z,50.69
2016-09-15T00:07:15.509Z,50.69
2016-09-15T00:07:56.059Z,50.79
2016-09-15T00:08:36.601Z,50.79
2016-09-15T00:09:17.149Z,50.69
2016-09-15T00:09:57.707Z,50.79
2016-09-15T00:10:38.246Z,50.89
2016-09-15T00:11:18.792Z,50.69
2016-09-15T00:11:59.339Z,50.69
2016-09-15T00:12:39.889Z,51.07
2016-09-15T00:13:20.435Z,50.69
2016-09-15T00:14:00.979Z,50.69
2016-09-15T00:14:41.520Z,50.79
2016-09-15T00:15:22.063Z,50.98
2016-09-15T00:16:02.612Z,50.5
2016-09-15T00:16:43.154Z,50.59
2016-09-15T00:17:23.702Z,50.5
2016-09-15T00:18:04.254Z,50.4
2016-09-15T00:18:44.795Z,50.5
2016-09-15T00:19:25.341Z,50.59
2016-09-15T00:20:05.887Z,50.5
2016-09-15T00:20:46.437Z,50.5
2016-09-15T00:21:26.986Z,50.31
2016-09-15T00:22:07.537Z,50.21
2016-09-15T00:22:48.091Z,50.21
2016-09-15T00:23:28.637Z,50.4
2016-09-15T00:24:09.194Z,49.92
2016-09-15T00:24:49.741Z,50.31
2016-09-15T00:25:30.296Z,50.01
2016-09-15T00:26:10.842Z,50.21
2016-09-15T00:26:51.393Z,50.21
2016-09-15T00:27:31.945Z,50.4
2016-09-15T00:28:12.496Z,49.92
2016-09-15T00:28:53.048Z,50.4
2016-09-15T00:29:33.596Z,50.01
2016-09-15T00:30:14.136Z,49.82
2016-09-15T00:30:54.692Z,50.31
2016-09-15T00:31:35.237Z,50.11
2016-09-15T00:32:15.777Z,49.92
2016-09-15T00:32:56.325Z,50.11
2016-09-15T00:33:36.867Z,50.11
2016-09-15T00:34:17.402Z,50.11
2016-09-15T00:34:57.940Z,50.11
2016-09-15T00:35:38.489Z,50.21
2016-09-15T00:36:19.023Z,50.31
2016-09-15T00:36:59.564Z,50.5
2016-09-15T00:37:40.107Z,50.59
2016-09-15T00:38:20.657Z,50.4
2016-09-15T00:39:01.208Z,50.5
2016-09-15T00:39:41.746Z,50.59
2016-09-15T00:40:22.296Z,50.21
2016-09-15T00:41:02.842Z,50.5
2016-09-15T00:41:43.387Z,50.69
2016-09-15T00:42:23.936Z,50.89
2016-09-15T00:43:04.475Z,50.89
2016-09-15T00:43:45.023Z,50.79
2016-09-15T00:44:25.567Z,50.59
2016-09-15T00:45:06.125Z,50.67
2016-09-15T00:45:46.672Z,50.89
2016-09-15T00:46:27.205Z,50.98
2016-09-15T00:47:07.739Z,50.89
2016-09-15T00:47:48.296Z,50.96
2016-09-15T00:48:28.840Z,50.86
2016-09-15T00:49:09.399Z,50.96
2016-09-15T00:49:49.945Z,51.15
2016-09-15T00:50:30.496Z,51.05
2016-09-15T00:51:11.042Z,51.05
2016-09-15T00:51:51.594Z,51.05
2016-09-15T00:52:32.136Z,50.79
2016-09-15T00:53:12.687Z,50.79
2016-09-15T00:53:53.248Z,50.89
2016-09-15T00:54:33.784Z,50.96
2016-09-15T00:55:14.332Z,50.96
2016-09-15T00:55:54.885Z,51.27
2016-09-15T00:56:35.420Z,50.96
2016-09-15T00:57:15.972Z,50.89
2016-09-15T00:57:56.516Z,51.05
2016-09-15T00:58:37.061Z,51.27
2016-09-15T00:59:17.607Z,50.89
2016-09-15T00:59:58.153Z,50.59
2016-09-15T01:00:38.703Z,50.59
2016-09-15T01:01:19.240Z,50.79
2016-09-15T01:01:59.792Z,50.79
2016-09-15T01:02:40.339Z,50.59
2016-09-15T01:03:20.875Z,50.69
2016-09-15T01:04:01.425Z,50.89
2016-09-15T01:04:41.960Z,50.69
2016-09-15T01:05:22.496Z,50.98
2016-09-15T01:06:03.044Z,50.59
2016-09-15T01:06:43.592Z,50.59
2016-09-15T01:07:24.145Z,50.69
2016-09-15T01:08:04.669Z,50.5
2016-09-15T01:08:45.203Z,50.4
2016-09-15T01:09:25.737Z,50.4
2016-09-15T01:10:06.283Z,50.59
2016-09-15T01:10:46.814Z,50.4
2016-09-15T01:11:27.371Z,50.59
2016-09-15T01:12:07.914Z,50.4
2016-09-15T01:12:48.468Z,50.5
2016-09-15T01:13:29.019Z,50.31
2016-09-15T01:14:09.568Z,50.59
2016-09-15T01:14:50.119Z,50.69
2016-09-15T01:15:30.668Z,50.5
2016-09-15T01:16:11.209Z,50.59
2016-09-15T01:16:51.762Z,50.67
2016-09-15T01:17:32.308Z,51.17
2016-09-15T01:18:12.854Z,51.05
2016-09-15T01:18:53.405Z,50.67
2016-09-15T01:19:33.966Z,51.34
2016-09-15T01:20:14.512Z,51.05
2016-09-15T01:20:55.055Z,51.63
2016-09-15T01:21:35.606Z,52.21
2016-09-15T01:22:16.157Z,52.69
2016-09-15T01:22:56.709Z,52.31
2016-09-15T01:23:37.247Z,52.59
2016-09-15T01:24:17.795Z,52.59
2016-09-15T01:24:58.345Z,53.27
2016-09-15T01:25:38.905Z,54.14
2016-09-15T01:26:19.440Z,54.24
2016-09-15T01:26:59.988Z,54.31
2016-09-15T01:27:40.534Z,54.21
2016-09-15T01:28:21.084Z,54.53
2016-09-15T01:29:01.634Z,54.5
2016-09-15T01:29:42.193Z,54.5
2016-09-15T01:30:22.742Z,54.02
2016-09-15T01:31:03.293Z,53.83
2016-09-15T01:31:43.839Z,53.92
2016-09-15T01:32:24.386Z,54.11
2016-09-15T01:33:04.930Z,54.11
2016-09-15T01:33:45.477Z,53.66
2016-09-15T01:34:26.016Z,53.75
2016-09-15T01:35:06.563Z,54.11
2016-09-15T01:35:47.119Z,53.83
2016-09-15T01:36:27.650Z,54.02
2016-09-15T01:37:08.185Z,53.83
2016-09-15T01:37:48.739Z,54.21
2016-09-15T01:38:29.283Z,54.31
2016-09-15T01:39:09.829Z,54.5
2016-09-15T01:39:50.372Z,54.79
2016-09-15T01:40:30.921Z,54.79
2016-09-15T01:41:11.463Z,54.98
2016-09-15T01:41:52.007Z,54.88
2016-09-15T01:42:32.558Z,54.69
2016-09-15T01:43:13.104Z,54.98
2016-09-15T01:43:53.651Z,54.88
2016-09-15T01:44:34.182Z,54.88
2016-09-15T01:45:14.732Z,54.69
2016-09-15T01:45:55.277Z,54.79
2016-09-15T01:46:35.824Z,55.27
2016-09-15T01:47:16.363Z,55.36
2016-09-15T01:47:56.908Z,55.44
2016-09-15T01:48:37.463Z,55.24
2016-09-15T01:49:18.013Z,55.63
2016-09-15T01:49:58.561Z,55.82
2016-09-15T01:50:39.110Z,55.92
2016-09-15T01:51:19.652Z,56.21
2016-09-15T01:52:00.194Z,56.3
2016-09-15T01:52:40.743Z,56.49
2016-09-15T01:53:21.297Z,56.37
2016-09-15T01:54:01.843Z,56.88
2016-09-15T01:54:42.393Z,56.85
2016-09-15T01:55:22.936Z,56.85
2016-09-15T01:56:03.476Z,57.43
2016-09-15T01:56:44.018Z,57.53
2016-09-15T01:57:24.564Z,57.43
2016-09-15T01:58:05.092Z,57.62
2016-09-15T01:58:45.641Z,57.72
2016-09-15T01:59:26.176Z,58.11
2016-09-15T02:00:06.721Z,58.2
2016-09-15T02:00:47.270Z,58.2
2016-09-15T02:01:27.822Z,58.2
2016-09-15T02:02:08.363Z,58.11
2016-09-15T02:02:48.911Z,58.11
2016-09-15T02:03:29.457Z,58.01
2016-09-15T02:04:10.025Z,58.2
2016-09-15T02:04:50.570Z,58.2
2016-09-15T02:05:31.118Z,58.59
2016-09-15T02:06:11.670Z,58.4
2016-09-15T02:06:52.212Z,58.65
2016-09-15T02:07:32.765Z,58.75
2016-09-15T02:08:13.314Z,59.23
2016-09-15T02:08:53.861Z,59.33
2016-09-15T02:09:34.397Z,59.23
2016-09-15T02:10:14.938Z,59.33
2016-09-15T02:10:55.497Z,59.81
2016-09-15T02:11:36.040Z,59.81
2016-09-15T02:12:16.563Z,60.1
2016-09-15T02:12:57.122Z,60.39
2016-09-15T02:13:37.656Z,60.07
2016-09-15T02:14:18.196Z,60.65
2016-09-15T02:14:58.744Z,60.84
2016-09-15T02:15:39.289Z,60.94
2016-09-15T02:16:19.827Z,60.75
2016-09-15T02:17:00.372Z,60.75
2016-09-15T02:17:40.920Z,61.32
2016-09-15T02:18:21.470Z,61.42
2016-09-15T02:19:02.022Z,61.19
2016-09-15T02:19:42.573Z,61.42
2016-09-15T02:20:23.123Z,61.58
2016-09-15T02:21:03.667Z,61.97
2016-09-15T02:21:44.216Z,61.77
2016-09-15T02:22:24.767Z,62.06
2016-09-15T02:23:05.317Z,61.68
2016-09-15T02:23:45.866Z,62.26
2016-09-15T02:24:26.405Z,62.26
2016-09-15T02:25:06.948Z,62.64
2016-09-15T02:25:47.505Z,62.64
2016-09-15T02:26:28.049Z,62.45
2016-09-15T02:27:08.598Z,62.74
2016-09-15T02:27:49.146Z,62.83
2016-09-15T02:28:29.698Z,62.54
2016-09-15T02:29:10.241Z,63.02
2016-09-15T02:29:50.789Z,63.31
2016-09-15T02:30:31.332Z,63.12
2016-09-15T02:31:11.880Z,63.31
2016-09-15T02:31:52.417Z,63.67
2016-09-15T02:32:32.960Z,63.76
2016-09-15T02:33:13.508Z,63.67
2016-09-15T02:33:54.050Z,63.86
2016-09-15T02:34:34.609Z,64.34
2016-09-15T02:35:15.151Z,64.43
2016-09-15T02:35:55.703Z,64.25
2016-09-15T02:36:36.244Z,64.63
2016-09-15T02:37:16.791Z,64.53
2016-09-15T02:37:57.337Z,64.92
2016-09-15T02:38:37.898Z,64.73
2016-09-15T02:39:18.435Z,64.53
2016-09-15T02:39:58.976Z,65.11
2016-09-15T02:40:39.524Z,64.73
2016-09-15T02:41:20.074Z,65.01
2016-09-15T02:42:00.624Z,65.01
2016-09-15T02:42:41.164Z,64.92
2016-09-15T02:43:21.718Z,65.11
2016-09-15T02:44:02.247Z,65.11
2016-09-15T02:44:42.790Z,65.2
2016-09-15T02:45:23.327Z,65.2
2016-09-15T02:46:03.874Z,64.92
2016-09-15T02:46:44.423Z,65.3
2016-09-15T02:47:24.974Z,65.3
2016-09-15T02:48:05.525Z,65.2
2016-09-15T02:48:46.075Z,65.69
2016-09-15T02:49:26.628Z,65.4
2016-09-15T02:50:07.178Z,65.5
2016-09-15T02:50:47.720Z,65.37
2016-09-15T02:51:28.266Z,65.97
2016-09-15T02:52:08.810Z,66.27
2016-09-15T02:52:49.359Z,66.17
2016-09-15T02:53:29.909Z,65.84
2016-09-15T02:54:10.458Z,66.07
2016-09-15T02:54:51.010Z,66.14
2016-09-15T02:55:31.564Z,65.94
2016-09-15T02:56:12.114Z,66.04
2016-09-15T02:56:52.664Z,66.14
2016-09-15T02:57:33.217Z,65.84
2016-09-15T02:58:13.767Z,65.94
2016-09-15T02:58:54.300Z,65.84
2016-09-15T02:59:34.843Z,66.23
2016-09-15T03:00:15.390Z,66.23
2016-09-15T03:00:55.941Z,66.14
2016-09-15T03:01:36.494Z,66.04
2016-09-15T03:02:17.041Z,65.75
2016-09-15T03:02:57.569Z,65.94
2016-09-15T03:03:38.115Z,65.84
2016-09-15T03:04:18.657Z,66.23
2016-09-15T03:04:59.196Z,66.71
2016-09-15T03:05:39.745Z,66.61
2016-09-15T03:06:20.295Z,66.61
2016-09-15T03:07:00.845Z,66.42
2016-09-15T03:07:41.389Z,66.52
2016-09-15T03:08:21.951Z,66.42
2016-09-15T03:09:02.485Z,66.52
2016-09-15T03:09:43.034Z,66.33
2016-09-15T03:10:23.587Z,66.71
2016-09-15T03:11:04.118Z,66.71
2016-09-15T03:11:44.657Z,66.91
2016-09-15T03:12:25.200Z,66.91
2016-09-15T03:13:05.752Z,67
2016-09-15T03:13:46.302Z,67.19
2016-09-15T03:14:26.848Z,67
2016-09-15T03:15:07.398Z,67
2016-09-15T03:15:47.931Z,67
2016-09-15T03:16:28.478Z,66.91
2016-09-15T03:17:09.017Z,67.38
2016-09-15T03:17:49.568Z,67.68
2016-09-15T03:18:30.115Z,67.38
2016-09-15T03:19:10.660Z,67.48
2016-09-15T03:19:51.210Z,67.58
2016-09-15T03:20:31.753Z,67.48
2016-09-15T03:21:12.302Z,67.38
2016-09-15T03:21:52.841Z,67.38
2016-09-15T03:22:33.386Z,67.48
2016-09-15T03:23:13.931Z,67.38
2016-09-15T03:23:54.480Z,67.38
2016-09-15T03:24:35.025Z,67.38
2016-09-15T03:25:15.573Z,67.48
2016-09-15T03:25:56.122Z,67.48
2016-09-15T03:26:36.673Z,67.58
2016-09-15T03:27:17.214Z,67.58
2016-09-15T03:27:57.764Z,67.29
2016-09-15T03:28:38.305Z,67.19
2016-09-15T03:29:18.840Z,67.68
2016-09-15T03:29:59.388Z,67.45
2016-09-15T03:30:39.941Z,67.54
2016-09-15T03:31:20.489Z,67.86
2016-09-15T03:32:01.027Z,67.25
2016-09-15T03:32:41.573Z,67.1
2016-09-15T03:33:22.127Z,67.1
2016-09-15T03:34:02.676Z,67.35
2016-09-15T03:34:43.219Z,67.29
2016-09-15T03:35:23.764Z,67.54
2016-09-15T03:36:04.311Z,67.58
2016-09-15T03:36:44.861Z,67.45
2016-09-15T03:37:25.409Z,67.45
2016-09-15T03:38:05.959Z,67.68
2016-09-15T03:38:46.509Z,67.86
2016-09-15T03:39:27.061Z,67.86
2016-09-15T03:40:07.613Z,67.77
2016-09-15T03:40:48.157Z,67.83
2016-09-15T03:41:28.703Z,67.58
2016-09-15T03:42:09.245Z,67.58
2016-09-15T03:42:49.790Z,67.45
2016-09-15T03:43:30.337Z,67.54
2016-09-15T03:44:10.887Z,67.38
2016-09-15T03:44:51.475Z,67.48
2016-09-15T03:45:31.971Z,67.77
2016-09-15T03:46:12.508Z,67.77
2016-09-15T03:46:53.059Z,67.83
2016-09-15T03:47:33.590Z,67.77
2016-09-15T03:48:14.130Z,67.68
2016-09-15T03:48:54.677Z,68.06
2016-09-15T03:49:35.221Z,68.15
2016-09-15T03:50:15.770Z,68.31
2016-09-15T03:50:56.321Z,68.54
2016-09-15T03:51:36.896Z,68.25
2016-09-15T03:52:17.440Z,68.54
2016-09-15T03:52:57.987Z,68.63
2016-09-15T03:53:38.530Z,68.79
2016-09-15T03:54:19.082Z,69.4
2016-09-15T03:54:59.685Z,68.92
2016-09-15T03:55:40.233Z,69.12
2016-09-15T03:56:20.796Z,68.79
2016-09-15T03:57:01.347Z,69.08
2016-09-15T03:57:41.886Z,68.7
2016-09-15T03:58:22.433Z,68.7
2016-09-15T03:59:02.976Z,68.41
2016-09-15T03:59:43.523Z,68.83
2016-09-15T04:00:24.073Z,69.18
2016-09-15T04:01:04.618Z,68.98
2016-09-15T04:01:45.160Z,69.08
2016-09-15T04:02:25.712Z,69.18
2016-09-15T04:03:06.263Z,69.37
2016-09-15T04:03:46.802Z,69.27
2016-09-15T04:04:27.346Z,69.75
2016-09-15T04:05:07.893Z,69.37
2016-09-15T04:05:48.468Z,69.56
2016-09-15T04:06:29.095Z,69.85
2016-09-15T04:07:09.645Z,69.46
2016-09-15T04:07:50.211Z,69.56
2016-09-15T04:08:30.761Z,69.75
2016-09-15T04:09:11.317Z,69.75
2016-09-15T04:09:51.869Z,69.95
2016-09-15T04:10:32.419Z,69.95
2016-09-15T04:11:13.036Z,70.52
2016-09-15T04:11:53.589Z,70.14
2016-09-15T04:12:34.129Z,70.52
2016-09-15T04:13:14.669Z,70.9
2016-09-15T04:13:55.211Z,70.62
2016-09-15T04:14:35.749Z,70.81
2016-09-15T04:15:16.298Z,71.06
2016-09-15T04:15:56.836Z,71.35
2016-09-15T04:16:37.379Z,71.16
2016-09-15T04:17:17.922Z,71.35
2016-09-15T04:17:58.461Z,70.97
2016-09-15T04:18:39.008Z,71.35
2016-09-15T04:19:19.555Z,71
2016-09-15T04:20:00.107Z,71.25
2016-09-15T04:20:40.655Z,71.25
2016-09-15T04:21:21.221Z,71.25
2016-09-15T04:22:01.752Z,71.25
2016-09-15T04:22:42.301Z,71.06
2016-09-15T04:23:22.853Z,71.06
2016-09-15T04:24:03.405Z,71.06
2016-09-15T04:24:43.954Z,71.45
2016-09-15T04:25:24.504Z,71.25
2016-09-15T04:26:05.056Z,71.25
2016-09-15T04:26:45.596Z,71.25
2016-09-15T04:27:26.146Z,71.35
2016-09-15T04:28:06.697Z,71.83
2016-09-15T04:28:47.248Z,71.73
2016-09-15T04:29:27.794Z,71.93
2016-09-15T04:30:08.340Z,71.93
2016-09-15T04:30:48.895Z,71.93
2016-09-15T04:31:29.438Z,71.93
2016-09-15T04:32:10.023Z,71.55
2016-09-15T04:32:50.566Z,71.93
2016-09-15T04:33:32.050Z,71.73
2016-09-15T04:34:12.602Z,71.73
2016-09-15T04:34:53.151Z,71.93
2016-09-15T04:35:33.703Z,71.55
2016-09-15T04:36:14.255Z,71.93
2016-09-15T04:36:54.795Z,71.73
2016-09-15T04:37:35.334Z,71.93
2016-09-15T04:38:15.895Z,72.02
2016-09-15T04:38:56.435Z,72.5
2016-09-15T04:39:36.978Z,71.93
2016-09-15T04:40:17.528Z,72.6
2016-09-15T04:40:58.077Z,72.31
2016-09-15T04:41:38.616Z,72.6
2016-09-15T04:42:19.150Z,72.31
2016-09-15T04:42:59.691Z,72.02
2016-09-15T04:43:40.233Z,72.6
2016-09-15T04:44:20.787Z,72.41
2016-09-15T04:45:01.392Z,72.41
2016-09-15T04:45:41.942Z,72.41
2016-09-15T04:46:22.477Z,72.41
2016-09-15T04:47:03.012Z,72.31
2016-09-15T04:47:43.552Z,72.31
2016-09-15T04:48:24.082Z,72.41
2016-09-15T04:49:04.625Z,72.79
2016-09-15T04:49:45.180Z,72.5
2016-09-15T04:50:25.724Z,72.5
2016-09-15T04:51:06.272Z,72.66
2016-09-15T04:51:46.788Z,72.31
2016-09-15T04:52:27.339Z,72.22
2016-09-15T04:53:07.891Z,72.6
2016-09-15T04:53:48.443Z,72.6
2016-09-15T04:54:28.988Z,72.6
2016-09-15T04:55:09.536Z,72.47
2016-09-15T04:55:50.092Z,72.6
2016-09-15T04:56:30.633Z,72.69
2016-09-15T04:57:11.169Z,73.04
2016-09-15T04:57:51.701Z,72.89
2016-09-15T04:58:32.321Z,72.99
2016-09-15T04:59:12.871Z,72.85
2016-09-15T04:59:53.424Z,72.85
2016-09-15T05:00:33.978Z,72.95
2016-09-15T05:01:14.525Z,72.95
2016-09-15T05:01:55.074Z,72.75
2016-09-15T05:02:35.636Z,73.04
2016-09-15T05:03:16.171Z,73.04
2016-09-15T05:03:56.729Z,73.04
2016-09-15T05:04:37.280Z,73.24
2016-09-15T05:05:17.830Z,73.04
2016-09-15T05:05:58.379Z,73.33
2016-09-15T05:06:38.934Z,72.89
2016-09-15T05:07:19.490Z,73.14
2016-09-15T05:08:00.040Z,73.62
2016-09-15T05:08:40.592Z,73.43
2016-09-15T05:09:21.152Z,73.52
2016-09-15T05:10:01.698Z,73.72
2016-09-15T05:10:42.235Z,73.91
2016-09-15T05:11:22.772Z,73.72
2016-09-15T05:12:03.322Z,73.72
2016-09-15T05:12:43.867Z,74.1
2016-09-15T05:13:24.416Z,74.19
2016-09-15T05:14:04.967Z,74.01
2016-09-15T05:14:45.519Z,74.1
2016-09-15T05:15:26.066Z,74.39
2016-09-15T05:16:06.614Z,74.58
2016-09-15T05:16:47.148Z,74.58
2016-09-15T05:17:27.692Z,74.39
2016-09-15T05:18:08.240Z,74.19
2016-09-15T05:18:48.780Z,74.87
2016-09-15T05:19:29.314Z,74.87
2016-09-15T05:20:09.853Z,74.68
2016-09-15T05:20:50.392Z,74.48
2016-09-15T05:21:30.942Z,75.06
2016-09-15T05:22:11.494Z,75.15
2016-09-15T05:22:52.037Z,75.06
2016-09-15T05:23:32.581Z,75.15
2016-09-15T05:24:13.123Z,75.15
2016-09-15T05:24:53.666Z,75.63
2016-09-15T05:25:34.219Z,75.45
2016-09-15T05:26:14.742Z,75.63
2016-09-15T05:26:55.298Z,75.35
2016-09-15T05:27:35.849Z,75.45
2016-09-15T05:28:16.390Z,75.73
2016-09-15T05:28:56.936Z,75.45
2016-09-15T05:29:37.487Z,75.82
2016-09-15T05:30:18.029Z,76.12
2016-09-15T05:30:58.594Z,76.02
2016-09-15T05:31:39.130Z,76.31
2016-09-15T05:32:19.672Z,76.02
2016-09-15T05:33:00.220Z,75.92
2016-09-15T05:33:40.769Z,76.31
2016-09-15T05:34:21.318Z,76.21
2016-09-15T05:35:01.865Z,76.88
2016-09-15T05:35:42.409Z,76.69
2016-09-15T05:36:22.960Z,76.4
2016-09-15T05:37:03.498Z,76.75
2016-09-15T05:37:44.028Z,77.17
2016-09-15T05:38:24.580Z,77.26
2016-09-15T05:39:05.118Z,76.46
2016-09-15T05:39:45.661Z,76.56
2016-09-15T05:40:26.212Z,76.5
2016-09-15T05:41:06.751Z,76.88
2016-09-15T05:41:47.303Z,77.13
2016-09-15T05:42:27.839Z,76.98
2016-09-15T05:43:08.384Z,77.56
2016-09-15T05:43:48.930Z,77.26
2016-09-15T05:44:29.481Z,77.26
2016-09-15T05:45:10.025Z,77.23
2016-09-15T05:45:50.582Z,77.71
2016-09-15T05:46:31.123Z,77.61
2016-09-15T05:47:11.669Z,77.65
2016-09-15T05:47:52.218Z,77.71
2016-09-15T05:48:32.763Z,78.19
2016-09-15T05:49:13.309Z,78.09
2016-09-15T05:49:53.855Z,78.09
2016-09-15T05:50:34.408Z,78
2016-09-15T05:51:14.955Z,78.47
2016-09-15T05:51:55.503Z,78.19
2016-09-15T05:52:36.045Z,78.09
2016-09-15T05:53:16.595Z,78.67
2016-09-15T05:53:57.138Z,78.52
2016-09-15T05:54:37.680Z,78.77
2016-09-15T05:55:18.218Z,78.57
2016-09-15T05:55:58.771Z,78.61
2016-09-15T05:56:39.317Z,78.47
2016-09-15T05:57:19.869Z,78.28
2016-09-15T05:58:00.424Z,78.38
2016-09-15T05:58:40.958Z,78.23
2016-09-15T05:59:21.499Z,78.38
2016-09-15T06:00:02.040Z,78.19
2016-09-15T06:00:42.577Z,78.38
2016-09-15T06:01:23.125Z,78.9
2016-09-15T06:02:03.680Z,78.77
2016-09-15T06:02:44.229Z,78.77
2016-09-15T06:03:24.777Z,78.38
2016-09-15T06:04:05.322Z,78.47
2016-09-15T06:04:45.870Z,78.38
2016-09-15T06:05:26.418Z,78.38
2016-09-15T06:06:06.960Z,78.52
2016-09-15T06:06:47.500Z,78.52
2016-09-15T06:07:28.045Z,78.52
2016-09-15T06:08:08.579Z,78.32
2016-09-15T06:08:49.127Z,78.61
2016-09-15T06:09:29.681Z,78.61
2016-09-15T06:10:10.220Z,78.61
2016-09-15T06:10:50.766Z,78.61
2016-09-15T06:11:31.311Z,77.84
2016-09-15T06:12:11.860Z,78.23
2016-09-15T06:12:52.408Z,78.42
2016-09-15T06:13:32.954Z,78.42
2016-09-15T06:14:13.498Z,78.42
2016-09-15T06:14:54.046Z,78.23
2016-09-15T06:15:34.590Z,78.23
2016-09-15T06:16:15.136Z,77.84
2016-09-15T06:16:55.681Z,78.13
2016-09-15T06:17:36.232Z,78.13
2016-09-15T06:18:16.778Z,77.65
2016-09-15T06:18:57.316Z,77.75
2016-09-15T06:19:37.865Z,77.56
2016-09-15T06:20:18.411Z,77.75
2016-09-15T06:20:58.957Z,77.84
2016-09-15T06:21:39.495Z,77.46
2016-09-15T06:22:20.031Z,77.46
2016-09-15T06:23:00.579Z,77.26
2016-09-15T06:23:41.126Z,77.26
2016-09-15T06:24:21.673Z,77.26
2016-09-15T06:25:02.223Z,77.26
2016-09-15T06:25:42.774Z,77.36
2016-09-15T06:26:23.318Z,77.46
2016-09-15T06:27:03.862Z,77.56
2016-09-15T06:27:44.406Z,77.4
2016-09-15T06:28:24.948Z,77.36
2016-09-15T06:29:05.498Z,77.36
2016-09-15T06:29:46.052Z,77.26
2016-09-15T06:30:26.598Z,77.5
2016-09-15T06:31:07.145Z,77.46
2016-09-15T06:31:47.682Z,77.21
2016-09-15T06:32:28.243Z,77.11
2016-09-15T06:33:08.776Z,77.11
2016-09-15T06:33:49.319Z,77.21
2016-09-15T06:34:29.855Z,77.11
2016-09-15T06:35:10.410Z,77.11
2016-09-15T06:35:50.946Z,77.31
2016-09-15T06:36:31.487Z,77.5
2016-09-15T06:37:12.041Z,77.5
2016-09-15T06:37:52.585Z,77.5
2016-09-15T06:38:33.137Z,77.21
2016-09-15T06:39:13.684Z,77.31
2016-09-15T06:39:54.233Z,77.11
2016-09-15T06:40:34.790Z,77.4
2016-09-15T06:41:15.344Z,77.4
2016-09-15T06:41:55.892Z,77.21
2016-09-15T06:42:36.442Z,77.11
2016-09-15T06:43:16.994Z,77.31
2016-09-15T06:43:57.544Z,77.01
2016-09-15T06:44:38.089Z,76.92
2016-09-15T06:45:18.637Z,77.01
2016-09-15T06:45:59.188Z,77.11
2016-09-15T06:46:39.735Z,77.5
2016-09-15T06:47:20.285Z,77.21
2016-09-15T06:48:00.839Z,77.21
2016-09-15T06:48:41.392Z,76.64
2016-09-15T06:49:21.952Z,76.86
2016-09-15T06:50:02.491Z,76.86
2016-09-15T06:50:43.032Z,76.86
2016-09-15T06:51:23.569Z,76.67
2016-09-15T06:52:04.113Z,76.67
2016-09-15T06:52:44.659Z,76.86
2016-09-15T06:53:25.201Z,76.86
2016-09-15T06:54:05.744Z,77.06
2016-09-15T06:54:46.295Z,76.39
2016-09-15T06:55:26.848Z,76.29
2016-09-15T06:56:07.401Z,76.29
2016-09-15T06:56:47.944Z,76.39
2016-09-15T06:57:28.480Z,76.29
2016-09-15T06:58:09.030Z,76.09
2016-09-15T06:58:49.570Z,76.19
2016-09-15T06:59:30.115Z,76.39
2016-09-15T07:00:10.665Z,76.48
2016-09-15T07:00:51.213Z,76.09
2016-09-15T07:01:31.763Z,76
2016-09-15T07:02:12.310Z,76.23
2016-09-15T07:02:53.069Z,76.19
2016-09-15T07:03:33.401Z,76.14
2016-09-15T07:04:13.944Z,76.19
2016-09-15T07:04:54.506Z,75.84
2016-09-15T07:05:35.054Z,75.23
2016-09-15T07:06:15.596Z,76.04
2016-09-15T07:06:56.139Z,75.46
2016-09-15T07:07:36.685Z,75.94
2016-09-15T07:08:17.233Z,75.27
2016-09-15T07:08:57.776Z,75.27
2016-09-15T07:09:38.315Z,75.17
2016-09-15T07:10:18.863Z,74.98
2016-09-15T07:10:59.409Z,74.69
2016-09-15T07:11:39.959Z,74.88
2016-09-15T07:12:20.503Z,74.34
2016-09-15T07:13:01.047Z,74.63
2016-09-15T07:13:41.604Z,74.63
2016-09-15T07:14:22.148Z,74.63
2016-09-15T07:15:02.697Z,74.92
2016-09-15T07:15:43.249Z,74.34
2016-09-15T07:16:23.801Z,74.25
2016-09-15T07:17:04.342Z,74.25
2016-09-15T07:17:44.885Z,73.77
2016-09-15T07:18:25.429Z,73.67
2016-09-15T07:19:05.982Z,73.19
2016-09-15T07:19:46.533Z,73.09
2016-09-15T07:20:27.088Z,73.09
2016-09-15T07:21:07.635Z,72.55
2016-09-15T07:21:48.181Z,72.26
2016-09-15T07:22:28.727Z,71.97
2016-09-15T07:23:09.278Z,71.97
2016-09-15T07:23:49.824Z,71.59
2016-09-15T07:24:30.375Z,71.3
2016-09-15T07:25:10.917Z,71.24
2016-09-15T07:25:51.468Z,71.34
2016-09-15T07:26:32.017Z,71.14
2016-09-15T07:27:12.566Z,70.66
2016-09-15T07:27:53.117Z,70.66
2016-09-15T07:28:33.672Z,70.76
2016-09-15T07:29:14.227Z,70.95
2016-09-15T07:29:54.766Z,70.76
2016-09-15T07:30:35.315Z,70.47
2016-09-15T07:31:15.867Z,70.28
2016-09-15T07:31:56.406Z,70.18
2016-09-15T07:32:36.944Z,69.99
2016-09-15T07:33:17.488Z,70.12
2016-09-15T07:33:58.036Z,69.73
2016-09-15T07:34:38.592Z,69.93
2016-09-15T07:35:19.137Z,69.83
2016-09-15T07:35:59.676Z,69.54
2016-09-15T07:36:40.225Z,69.45
2016-09-15T07:37:20.774Z,69.25
2016-09-15T07:38:01.325Z,69.25
2016-09-15T07:38:41.878Z,68.77
2016-09-15T07:39:22.425Z,69.45
2016-09-15T07:40:02.971Z,68.87
2016-09-15T07:40:43.532Z,68.42
2016-09-15T07:41:24.081Z,68.19
2016-09-15T07:42:04.630Z,67.36
2016-09-15T07:42:45.181Z,67.55
2016-09-15T07:43:25.715Z,67.36
2016-09-15T07:44:06.262Z,67.55
2016-09-15T07:44:46.811Z,67.84
2016-09-15T07:45:27.356Z,67.07
2016-09-15T07:46:07.907Z,66.69
2016-09-15T07:46:48.447Z,66.97
2016-09-15T07:47:28.991Z,66.69
2016-09-15T07:48:09.542Z,66.2
2016-09-15T07:48:50.086Z,65.81
2016-09-15T07:49:30.635Z,66.43
2016-09-15T07:50:11.189Z,66.14
2016-09-15T07:50:51.739Z,65.95
2016-09-15T07:51:32.289Z,66.14
2016-09-15T07:52:12.840Z,65.47
2016-09-15T07:52:53.390Z,65.85
2016-09-15T07:53:33.943Z,65.75
2016-09-15T07:54:14.495Z,65.37
2016-09-15T07:54:55.031Z,64.72
2016-09-15T07:55:35.581Z,64.82
2016-09-15T07:56:16.122Z,65.17
2016-09-15T07:56:56.670Z,64.34
2016-09-15T07:57:37.213Z,64.34
2016-09-15T07:58:17.758Z,63.95
2016-09-15T07:58:58.303Z,63.95
2016-09-15T07:59:38.851Z,63.95
2016-09-15T08:00:19.414Z,63.37
2016-09-15T08:00:59.956Z,63.31
2016-09-15T08:01:40.503Z,63.02
2016-09-15T08:02:21.042Z,62.82
2016-09-15T08:03:01.587Z,62.92
2016-09-15T08:03:42.134Z,63.12
2016-09-15T08:04:22.684Z,62.92
2016-09-15T08:05:03.237Z,62.63
2016-09-15T08:05:43.777Z,62.82
2016-09-15T08:06:24.337Z,62.25
2016-09-15T08:07:04.888Z,62.92
2016-09-15T08:07:45.439Z,62.37
2016-09-15T08:08:25.991Z,62.54
2016-09-15T08:09:06.528Z,61.7
2016-09-15T08:09:47.121Z,61.7
2016-09-15T08:10:27.664Z,61.89
2016-09-15T08:11:08.216Z,61.31
2016-09-15T08:11:48.765Z,61.41
2016-09-15T08:12:29.318Z,61.89
2016-09-15T08:13:09.854Z,61.41
2016-09-15T08:13:50.398Z,61.41
2016-09-15T08:14:30.952Z,61.41
2016-09-15T08:15:11.509Z,61.41
2016-09-15T08:15:52.057Z,60.96
2016-09-15T08:16:32.608Z,61.15
2016-09-15T08:17:13.157Z,61.25
2016-09-15T08:17:53.707Z,60.76
2016-09-15T08:18:34.255Z,60.57
2016-09-15T08:19:14.809Z,60.57
2016-09-15T08:19:55.360Z,59.89
2016-09-15T08:20:35.909Z,59.92
2016-09-15T08:21:16.460Z,59.92
2016-09-15T08:21:57.007Z,59.44
2016-09-15T08:22:37.556Z,59.63
2016-09-15T08:23:18.109Z,58.86
2016-09-15T08:23:58.662Z,58.67
2016-09-15T08:24:39.210Z,58.47
2016-09-15T08:25:19.765Z,57.82
2016-09-15T08:26:00.313Z,57.73
2016-09-15T08:26:40.865Z,57.73
2016-09-15T08:27:21.418Z,57.44
2016-09-15T08:28:01.965Z,57.24
2016-09-15T08:28:42.516Z,56.47
2016-09-15T08:29:23.068Z,55.99
2016-09-15T08:30:03.620Z,56.21
2016-09-15T08:30:44.169Z,55.53
2016-09-15T08:31:24.720Z,55.63
2016-09-15T08:32:05.271Z,55.82
2016-09-15T08:32:45.810Z,55.63
2016-09-15T08:33:26.361Z,55.34
2016-09-15T08:34:06.914Z,55.17
2016-09-15T08:34:47.469Z,54.59
2016-09-15T08:35:28.025Z,54.01
2016-09-15T08:36:08.575Z,53.72
2016-09-15T08:36:49.128Z,53.36
2016-09-15T08:37:29.688Z,52.46
2016-09-15T08:38:10.234Z,52.2
2016-09-15T08:38:50.782Z,51.81
2016-09-15T08:39:31.333Z,51.9
2016-09-15T08:40:11.884Z,51.52
2016-09-15T08:40:52.435Z,50.94
2016-09-15T08:41:32.986Z,51.35
2016-09-15T08:42:13.535Z,51.45
2016-09-15T08:42:54.084Z,50.67
2016-09-15T08:43:34.627Z,50.48
2016-09-15T08:44:15.185Z,50.09